sensor_id;sensor_type;location;lat;lon;timestamp;temperature;humidity
30250;DHT22;17064;47.974;13.826;2023-08-01T00:05:00;17.00;99.90
30250;DHT22;17064;47.974;13.826;2023-08-01T00:10:01;17.10;99.90
30250;DHT22;17064;47.974;13.826;2023-08-01T00:15:03;17.10;99.90
30250;DHT22;17064;47.974;13.826;2023-08-01T00:20:04;17.10;99.90
30250;DHT22;17064;47.974;13.826;2023-08-01T00:25:05;17.10;99.90
30250;DHT22;17064;47.974;13.826;2023-08-01T00:30:08;17.20;99.90
30250;DHT22;17064;47.974;13.826;2023-08-01T00:35:09;17.20;99.90
30250;DHT22;17064;47.974;13.826;2023-08-01T00:40:10;17.20;99.90
30250;DHT22;17064;47.974;13.826;2023-08-01T00:45:11;17.30;99.90
30250;DHT22;17064;47.974;13.826;2023-08-01T00:50:12;17.30;99.90
30250;DHT22;17064;47.974;13.826;2023-08-01T00:55:14;17.30;99.90
30250;DHT22;17064;47.974;13.826;2023-08-01T01:00:16;17.30;99.90
30250;DHT22;17064;47.974;13.826;2023-08-01T01:05:17;17.40;99.90
30250;DHT22;17064;47.974;13.826;2023-08-01T01:10:19;17.40;99.90
30250;DHT22;17064;47.974;13.826;2023-08-01T01:15:20;17.50;99.90
30250;DHT22;17064;47.974;13.826;2023-08-01T01:20:23;17.50;99.90
30250;DHT22;17064;47.974;13.826;2023-08-01T01:25:25;17.50;99.90
30250;DHT22;17064;47.974;13.826;2023-08-01T01:30:27;17.60;99.90
30250;DHT22;17064;47.974;13.826;2023-08-01T01:35:28;17.60;99.90
30250;DHT22;17064;47.974;13.826;2023-08-01T01:40:33;17.70;99.90
30250;DHT22;17064;47.974;13.826;2023-08-01T01:45:34;17.70;99.90
30250;DHT22;17064;47.974;13.826;2023-08-01T01:50:35;17.80;99.90
30250;DHT22;17064;47.974;13.826;2023-08-01T01:55:36;17.80;99.90
30250;DHT22;17064;47.974;13.826;2023-08-01T02:00:37;17.80;99.90
30250;DHT22;17064;47.974;13.826;2023-08-01T02:05:39;17.90;99.90
30250;DHT22;17064;47.974;13.826;2023-08-01T02:10:39;17.90;99.90
30250;DHT22;17064;47.974;13.826;2023-08-01T02:15:40;17.90;99.90
30250;DHT22;17064;47.974;13.826;2023-08-01T02:20:41;18.00;99.90
30250;DHT22;17064;47.974;13.826;2023-08-01T02:25:42;18.00;99.90
30250;DHT22;17064;47.974;13.826;2023-08-01T02:30:43;18.00;99.90
30250;DHT22;17064;47.974;13.826;2023-08-01T02:35:46;18.10;99.90
30250;DHT22;17064;47.974;13.826;2023-08-01T02:40:47;18.10;99.90
30250;DHT22;17064;47.974;13.826;2023-08-01T02:45:48;18.10;99.90
30250;DHT22;17064;47.974;13.826;2023-08-01T02:50:48;18.10;99.90
30250;DHT22;17064;47.974;13.826;2023-08-01T02:55:49;18.00;99.90
30250;DHT22;17064;47.974;13.826;2023-08-01T03:00:50;18.00;99.90
30250;DHT22;17064;47.974;13.826;2023-08-01T03:05:52;18.00;99.90
30250;DHT22;17064;47.974;13.826;2023-08-01T03:10:54;18.00;99.90
30250;DHT22;17064;47.974;13.826;2023-08-01T03:15:54;18.00;99.90
30250;DHT22;17064;47.974;13.826;2023-08-01T03:20:55;18.00;99.90
30250;DHT22;17064;47.974;13.826;2023-08-01T03:25:56;18.20;99.90
30250;DHT22;17064;47.974;13.826;2023-08-01T03:30:57;18.20;99.90
30250;DHT22;17064;47.974;13.826;2023-08-01T03:35:58;18.40;99.90
30250;DHT22;17064;47.974;13.826;2023-08-01T03:40:59;18.40;99.90
30250;DHT22;17064;47.974;13.826;2023-08-01T03:45:59;18.40;99.90
30250;DHT22;17064;47.974;13.826;2023-08-01T03:51:00;18.50;99.90
30250;DHT22;17064;47.974;13.826;2023-08-01T03:56:03;18.50;99.90
30250;DHT22;17064;47.974;13.826;2023-08-01T04:01:04;18.50;99.90
30250;DHT22;17064;47.974;13.826;2023-08-01T04:06:06;18.60;99.90
30250;DHT22;17064;47.974;13.826;2023-08-01T04:11:07;18.60;99.90
30250;DHT22;17064;47.974;13.826;2023-08-01T04:16:08;18.60;99.90
30250;DHT22;17064;47.974;13.826;2023-08-01T04:21:09;18.40;99.90
30250;DHT22;17064;47.974;13.826;2023-08-01T04:26:10;18.30;99.90
30250;DHT22;17064;47.974;13.826;2023-08-01T04:31:10;18.20;99.90
30250;DHT22;17064;47.974;13.826;2023-08-01T04:36:14;18.00;99.90
30250;DHT22;17064;47.974;13.826;2023-08-01T04:41:15;18.00;99.90
30250;DHT22;17064;47.974;13.826;2023-08-01T04:46:16;18.00;99.90
30250;DHT22;17064;47.974;13.826;2023-08-01T04:51:16;18.10;99.90
30250;DHT22;17064;47.974;13.826;2023-08-01T04:56:17;18.00;99.90
30250;DHT22;17064;47.974;13.826;2023-08-01T05:01:18;17.90;99.90
30250;DHT22;17064;47.974;13.826;2023-08-01T05:06:19;17.70;99.90
30250;DHT22;17064;47.974;13.826;2023-08-01T05:11:20;17.60;99.90
30250;DHT22;17064;47.974;13.826;2023-08-01T05:16:21;17.50;99.90
30250;DHT22;17064;47.974;13.826;2023-08-01T05:21:22;17.40;99.90
30250;DHT22;17064;47.974;13.826;2023-08-01T05:26:22;17.30;99.90
30250;DHT22;17064;47.974;13.826;2023-08-01T05:31:23;17.30;99.90
30250;DHT22;17064;47.974;13.826;2023-08-01T05:36:24;17.30;99.90
30250;DHT22;17064;47.974;13.826;2023-08-01T05:41:25;17.30;99.90
30250;DHT22;17064;47.974;13.826;2023-08-01T05:46:25;17.30;99.90
30250;DHT22;17064;47.974;13.826;2023-08-01T05:51:26;17.30;99.90
30250;DHT22;17064;47.974;13.826;2023-08-01T05:56:27;17.30;99.90
30250;DHT22;17064;47.974;13.826;2023-08-01T06:01:28;17.30;99.90
30250;DHT22;17064;47.974;13.826;2023-08-01T06:06:28;17.30;99.90
30250;DHT22;17064;47.974;13.826;2023-08-01T06:11:29;17.20;99.90
30250;DHT22;17064;47.974;13.826;2023-08-01T06:16:30;17.20;99.90
30250;DHT22;17064;47.974;13.826;2023-08-01T06:21:31;17.10;99.90
30250;DHT22;17064;47.974;13.826;2023-08-01T06:26:31;17.00;99.90
30250;DHT22;17064;47.974;13.826;2023-08-01T06:31:32;16.90;99.90
30250;DHT22;17064;47.974;13.826;2023-08-01T06:36:33;16.90;99.90
30250;DHT22;17064;47.974;13.826;2023-08-01T06:41:33;16.80;99.90
30250;DHT22;17064;47.974;13.826;2023-08-01T06:46:34;16.80;99.90
30250;DHT22;17064;47.974;13.826;2023-08-01T06:51:35;16.70;99.90
30250;DHT22;17064;47.974;13.826;2023-08-01T06:56:36;16.60;99.90
30250;DHT22;17064;47.974;13.826;2023-08-01T07:01:36;16.70;99.90
30250;DHT22;17064;47.974;13.826;2023-08-01T07:06:40;16.70;99.90
30250;DHT22;17064;47.974;13.826;2023-08-01T07:11:41;16.70;99.90
30250;DHT22;17064;47.974;13.826;2023-08-01T07:16:42;16.70;99.90
30250;DHT22;17064;47.974;13.826;2023-08-01T07:21:42;16.70;99.90
30250;DHT22;17064;47.974;13.826;2023-08-01T07:26:45;16.60;99.90
30250;DHT22;17064;47.974;13.826;2023-08-01T07:31:46;16.60;99.90
30250;DHT22;17064;47.974;13.826;2023-08-01T07:36:48;16.60;99.90
30250;DHT22;17064;47.974;13.826;2023-08-01T07:41:49;16.60;99.90
30250;DHT22;17064;47.974;13.826;2023-08-01T07:46:50;16.70;99.90
30250;DHT22;17064;47.974;13.826;2023-08-01T07:51:51;16.70;99.90
30250;DHT22;17064;47.974;13.826;2023-08-01T07:56:51;16.70;99.90
30250;DHT22;17064;47.974;13.826;2023-08-01T08:01:52;16.50;99.90
30250;DHT22;17064;47.974;13.826;2023-08-01T08:06:53;16.50;99.90
30250;DHT22;17064;47.974;13.826;2023-08-01T08:11:55;16.40;99.90
30250;DHT22;17064;47.974;13.826;2023-08-01T08:16:57;16.40;99.90
30250;DHT22;17064;47.974;13.826;2023-08-01T08:21:58;16.50;99.90
30250;DHT22;17064;47.974;13.826;2023-08-01T08:26:59;16.50;99.90
30250;DHT22;17064;47.974;13.826;2023-08-01T08:32:00;16.50;99.90
30250;DHT22;17064;47.974;13.826;2023-08-01T08:37:00;16.50;99.90
30250;DHT22;17064;47.974;13.826;2023-08-01T08:42:01;16.40;99.90
30250;DHT22;17064;47.974;13.826;2023-08-01T08:47:04;16.50;99.90
30250;DHT22;17064;47.974;13.826;2023-08-01T08:52:05;16.50;99.90
30250;DHT22;17064;47.974;13.826;2023-08-01T08:57:06;16.50;99.90
30250;DHT22;17064;47.974;13.826;2023-08-01T09:02:08;16.50;99.90
30250;DHT22;17064;47.974;13.826;2023-08-01T09:07:10;16.50;99.90
30250;DHT22;17064;47.974;13.826;2023-08-01T09:12:12;16.50;99.90
30250;DHT22;17064;47.974;13.826;2023-08-01T09:17:13;16.50;99.90
30250;DHT22;17064;47.974;13.826;2023-08-01T09:22:18;16.40;99.90
30250;DHT22;17064;47.974;13.826;2023-08-01T09:27:20;16.40;99.90
30250;DHT22;17064;47.974;13.826;2023-08-01T09:32:21;16.40;99.90
30250;DHT22;17064;47.974;13.826;2023-08-01T09:37:22;16.30;99.90
30250;DHT22;17064;47.974;13.826;2023-08-01T09:42:23;16.30;99.90
30250;DHT22;17064;47.974;13.826;2023-08-01T09:47:24;16.30;99.90
30250;DHT22;17064;47.974;13.826;2023-08-01T09:52:29;16.20;99.90
30250;DHT22;17064;47.974;13.826;2023-08-01T09:57:30;16.20;99.90
30250;DHT22;17064;47.974;13.826;2023-08-01T10:02:33;16.10;99.90
30250;DHT22;17064;47.974;13.826;2023-08-01T10:07:35;16.10;99.90
30250;DHT22;17064;47.974;13.826;2023-08-01T10:12:37;16.10;99.90
30250;DHT22;17064;47.974;13.826;2023-08-01T10:17:38;16.10;99.90
30250;DHT22;17064;47.974;13.826;2023-08-01T10:22:41;16.20;99.90
30250;DHT22;17064;47.974;13.826;2023-08-01T10:27:42;16.20;99.90
30250;DHT22;17064;47.974;13.826;2023-08-01T10:32:43;16.30;99.90
30250;DHT22;17064;47.974;13.826;2023-08-01T10:37:44;16.30;99.90
30250;DHT22;17064;47.974;13.826;2023-08-01T10:42:47;16.30;99.90
30250;DHT22;17064;47.974;13.826;2023-08-01T10:47:51;16.30;99.90
30250;DHT22;17064;47.974;13.826;2023-08-01T10:53:05;16.30;99.90
30250;DHT22;17064;47.974;13.826;2023-08-01T10:58:06;16.30;99.90
30250;DHT22;17064;47.974;13.826;2023-08-01T11:03:07;16.40;99.90
30250;DHT22;17064;47.974;13.826;2023-08-01T11:08:07;16.50;99.90
30250;DHT22;17064;47.974;13.826;2023-08-01T11:13:11;16.50;99.90
30250;DHT22;17064;47.974;13.826;2023-08-01T11:18:12;16.60;99.90
30250;DHT22;17064;47.974;13.826;2023-08-01T11:23:13;16.60;99.90
30250;DHT22;17064;47.974;13.826;2023-08-01T11:28:16;16.70;99.90
30250;DHT22;17064;47.974;13.826;2023-08-01T11:33:21;16.70;99.90
30250;DHT22;17064;47.974;13.826;2023-08-01T11:38:23;16.60;99.90
30250;DHT22;17064;47.974;13.826;2023-08-01T11:43:25;16.60;99.90
30250;DHT22;17064;47.974;13.826;2023-08-01T11:48:26;16.50;99.90
30250;DHT22;17064;47.974;13.826;2023-08-01T11:53:29;16.50;99.90
30250;DHT22;17064;47.974;13.826;2023-08-01T11:58:31;16.50;99.90
30250;DHT22;17064;47.974;13.826;2023-08-01T12:03:32;16.50;99.90
30250;DHT22;17064;47.974;13.826;2023-08-01T12:08:34;16.50;99.90
30250;DHT22;17064;47.974;13.826;2023-08-01T12:13:35;16.50;99.90
30250;DHT22;17064;47.974;13.826;2023-08-01T12:18:35;16.60;99.90
30250;DHT22;17064;47.974;13.826;2023-08-01T12:23:37;16.60;99.90
30250;DHT22;17064;47.974;13.826;2023-08-01T12:28:38;16.60;99.90
30250;DHT22;17064;47.974;13.826;2023-08-01T12:33:39;16.60;99.90
30250;DHT22;17064;47.974;13.826;2023-08-01T12:38:40;16.50;99.90
30250;DHT22;17064;47.974;13.826;2023-08-01T12:43:41;16.60;99.90
30250;DHT22;17064;47.974;13.826;2023-08-01T12:48:42;16.60;99.90
30250;DHT22;17064;47.974;13.826;2023-08-01T12:53:43;16.70;99.90
30250;DHT22;17064;47.974;13.826;2023-08-01T12:58:44;16.70;99.90
30250;DHT22;17064;47.974;13.826;2023-08-01T13:03:44;16.80;99.90
30250;DHT22;17064;47.974;13.826;2023-08-01T13:08:45;16.70;99.90
30250;DHT22;17064;47.974;13.826;2023-08-01T13:13:46;16.70;99.90
30250;DHT22;17064;47.974;13.826;2023-08-01T13:18:47;16.70;99.90
30250;DHT22;17064;47.974;13.826;2023-08-01T13:23:48;16.60;99.90
30250;DHT22;17064;47.974;13.826;2023-08-01T13:28:49;16.60;99.90
30250;DHT22;17064;47.974;13.826;2023-08-01T13:33:50;16.50;99.90
30250;DHT22;17064;47.974;13.826;2023-08-01T13:38:51;16.60;99.90
30250;DHT22;17064;47.974;13.826;2023-08-01T13:43:51;16.60;99.90
30250;DHT22;17064;47.974;13.826;2023-08-01T13:48:52;16.60;99.90
30250;DHT22;17064;47.974;13.826;2023-08-01T13:53:53;16.70;99.90
30250;DHT22;17064;47.974;13.826;2023-08-01T13:58:53;16.80;99.90
30250;DHT22;17064;47.974;13.826;2023-08-01T14:03:54;16.80;99.90
30250;DHT22;17064;47.974;13.826;2023-08-01T14:08:55;16.90;99.90
30250;DHT22;17064;47.974;13.826;2023-08-01T14:13:55;17.00;99.90
30250;DHT22;17064;47.974;13.826;2023-08-01T14:19:01;17.10;99.90
30250;DHT22;17064;47.974;13.826;2023-08-01T14:24:02;17.10;99.90
30250;DHT22;17064;47.974;13.826;2023-08-01T14:29:02;17.10;99.90
30250;DHT22;17064;47.974;13.826;2023-08-01T14:34:03;17.10;99.90
30250;DHT22;17064;47.974;13.826;2023-08-01T14:39:04;17.10;99.90
30250;DHT22;17064;47.974;13.826;2023-08-01T14:44:05;17.10;99.90
30250;DHT22;17064;47.974;13.826;2023-08-01T14:49:05;17.20;99.90
30250;DHT22;17064;47.974;13.826;2023-08-01T14:54:07;17.20;99.90
30250;DHT22;17064;47.974;13.826;2023-08-01T14:59:08;17.30;99.90
30250;DHT22;17064;47.974;13.826;2023-08-01T15:04:09;17.30;99.90
30250;DHT22;17064;47.974;13.826;2023-08-01T15:09:10;17.40;99.90
30250;DHT22;17064;47.974;13.826;2023-08-01T15:14:13;17.40;99.90
30250;DHT22;17064;47.974;13.826;2023-08-01T15:19:14;17.40;99.90
30250;DHT22;17064;47.974;13.826;2023-08-01T15:24:15;17.40;99.90
30250;DHT22;17064;47.974;13.826;2023-08-01T15:29:16;17.40;99.90
30250;DHT22;17064;47.974;13.826;2023-08-01T15:34:18;17.40;99.90
30250;DHT22;17064;47.974;13.826;2023-08-01T15:39:21;17.50;99.90
30250;DHT22;17064;47.974;13.826;2023-08-01T15:44:22;17.70;99.90
30250;DHT22;17064;47.974;13.826;2023-08-01T15:49:22;17.80;99.90
30250;DHT22;17064;47.974;13.826;2023-08-01T15:54:23;17.80;99.90
30250;DHT22;17064;47.974;13.826;2023-08-01T15:59:24;17.90;99.90
30250;DHT22;17064;47.974;13.826;2023-08-01T16:04:25;17.80;99.90
30250;DHT22;17064;47.974;13.826;2023-08-01T16:09:25;17.80;99.90
30250;DHT22;17064;47.974;13.826;2023-08-01T16:14:26;17.80;99.90
30250;DHT22;17064;47.974;13.826;2023-08-01T16:19:27;17.80;99.90
30250;DHT22;17064;47.974;13.826;2023-08-01T16:24:28;17.90;99.90
30250;DHT22;17064;47.974;13.826;2023-08-01T16:29:29;18.10;99.90
30250;DHT22;17064;47.974;13.826;2023-08-01T16:34:31;18.20;99.90
30250;DHT22;17064;47.974;13.826;2023-08-01T16:39:32;18.30;99.90
30250;DHT22;17064;47.974;13.826;2023-08-01T16:44:36;18.20;99.90
30250;DHT22;17064;47.974;13.826;2023-08-01T16:49:37;18.20;99.90
30250;DHT22;17064;47.974;13.826;2023-08-01T16:54:38;18.00;99.90
30250;DHT22;17064;47.974;13.826;2023-08-01T16:59:39;17.80;99.90
30250;DHT22;17064;47.974;13.826;2023-08-01T17:04:41;17.60;99.90
30250;DHT22;17064;47.974;13.826;2023-08-01T17:09:42;17.30;99.90
30250;DHT22;17064;47.974;13.826;2023-08-01T17:14:43;17.10;99.90
30250;DHT22;17064;47.974;13.826;2023-08-01T17:19:46;16.90;99.90
30250;DHT22;17064;47.974;13.826;2023-08-01T17:24:48;16.90;99.90
30250;DHT22;17064;47.974;13.826;2023-08-01T17:29:49;16.90;99.90
30250;DHT22;17064;47.974;13.826;2023-08-01T17:34:51;17.00;99.90
30250;DHT22;17064;47.974;13.826;2023-08-01T17:39:52;17.10;99.90
30250;DHT22;17064;47.974;13.826;2023-08-01T17:44:54;17.20;99.90
30250;DHT22;17064;47.974;13.826;2023-08-01T17:49:55;17.20;99.90
30250;DHT22;17064;47.974;13.826;2023-08-01T17:54:56;17.10;99.90
30250;DHT22;17064;47.974;13.826;2023-08-01T17:59:57;17.00;99.90
30250;DHT22;17064;47.974;13.826;2023-08-01T18:05:00;17.00;99.90
30250;DHT22;17064;47.974;13.826;2023-08-01T18:10:01;16.90;99.90
30250;DHT22;17064;47.974;13.826;2023-08-01T18:15:03;16.80;99.90
30250;DHT22;17064;47.974;13.826;2023-08-01T18:20:05;16.70;99.90
30250;DHT22;17064;47.974;13.826;2023-08-01T18:25:07;16.60;99.90
30250;DHT22;17064;47.974;13.826;2023-08-01T18:30:09;16.60;99.90
30250;DHT22;17064;47.974;13.826;2023-08-01T18:35:12;16.50;99.90
30250;DHT22;17064;47.974;13.826;2023-08-01T18:40:14;16.40;99.90
30250;DHT22;17064;47.974;13.826;2023-08-01T18:45:17;16.30;99.90
30250;DHT22;17064;47.974;13.826;2023-08-01T18:50:23;16.20;99.90
30250;DHT22;17064;47.974;13.826;2023-08-01T18:55:25;16.20;99.90
30250;DHT22;17064;47.974;13.826;2023-08-01T19:00:29;16.10;99.90
30250;DHT22;17064;47.974;13.826;2023-08-01T19:05:30;16.10;99.90
30250;DHT22;17064;47.974;13.826;2023-08-01T19:10:36;16.00;99.90
30250;DHT22;17064;47.974;13.826;2023-08-01T19:15:41;16.00;99.90
30250;DHT22;17064;47.974;13.826;2023-08-01T19:20:42;15.90;99.90
30250;DHT22;17064;47.974;13.826;2023-08-01T19:25:43;15.90;99.90
30250;DHT22;17064;47.974;13.826;2023-08-01T19:30:45;15.80;99.90
30250;DHT22;17064;47.974;13.826;2023-08-01T19:35:47;15.80;99.90
30250;DHT22;17064;47.974;13.826;2023-08-01T19:40:48;15.80;99.90
30250;DHT22;17064;47.974;13.826;2023-08-01T19:45:49;15.80;99.90
30250;DHT22;17064;47.974;13.826;2023-08-01T19:50:50;15.70;99.90
30250;DHT22;17064;47.974;13.826;2023-08-01T19:55:54;15.70;99.90
30250;DHT22;17064;47.974;13.826;2023-08-01T20:00:56;15.70;99.90
30250;DHT22;17064;47.974;13.826;2023-08-01T20:05:57;15.70;99.90
30250;DHT22;17064;47.974;13.826;2023-08-01T20:10:59;15.80;99.90
30250;DHT22;17064;47.974;13.826;2023-08-01T20:16:01;15.80;99.90
30250;DHT22;17064;47.974;13.826;2023-08-01T20:21:02;15.80;99.90
30250;DHT22;17064;47.974;13.826;2023-08-01T20:26:05;15.90;99.90
30250;DHT22;17064;47.974;13.826;2023-08-01T20:31:06;15.90;99.90
30250;DHT22;17064;47.974;13.826;2023-08-01T20:36:07;15.90;99.90
30250;DHT22;17064;47.974;13.826;2023-08-01T20:41:15;15.90;99.90
30250;DHT22;17064;47.974;13.826;2023-08-01T20:46:16;16.00;99.90
30250;DHT22;17064;47.974;13.826;2023-08-01T20:51:18;16.00;99.90
30250;DHT22;17064;47.974;13.826;2023-08-01T20:56:19;16.00;99.90
30250;DHT22;17064;47.974;13.826;2023-08-01T21:01:20;16.10;99.90
30250;DHT22;17064;47.974;13.826;2023-08-01T21:06:21;16.10;99.90
30250;DHT22;17064;47.974;13.826;2023-08-01T21:11:21;16.10;99.90
30250;DHT22;17064;47.974;13.826;2023-08-01T21:16:22;16.10;99.90
30250;DHT22;17064;47.974;13.826;2023-08-01T21:21:23;16.10;99.90
30250;DHT22;17064;47.974;13.826;2023-08-01T21:26:25;16.10;99.90
30250;DHT22;17064;47.974;13.826;2023-08-01T21:31:25;16.10;99.90
30250;DHT22;17064;47.974;13.826;2023-08-01T21:36:26;16.10;99.90
30250;DHT22;17064;47.974;13.826;2023-08-01T21:41:27;16.10;99.90
30250;DHT22;17064;47.974;13.826;2023-08-01T21:46:28;16.10;99.90
30250;DHT22;17064;47.974;13.826;2023-08-01T21:51:29;16.10;99.90
30250;DHT22;17064;47.974;13.826;2023-08-01T21:56:30;16.10;99.90
30250;DHT22;17064;47.974;13.826;2023-08-01T22:01:30;16.10;99.90
30250;DHT22;17064;47.974;13.826;2023-08-01T22:06:31;16.10;99.90
30250;DHT22;17064;47.974;13.826;2023-08-01T22:11:32;16.10;99.90
30250;DHT22;17064;47.974;13.826;2023-08-01T22:16:32;16.10;99.90
30250;DHT22;17064;47.974;13.826;2023-08-01T22:21:33;16.10;99.90
30250;DHT22;17064;47.974;13.826;2023-08-01T22:26:35;16.00;99.90
30250;DHT22;17064;47.974;13.826;2023-08-01T22:31:36;16.00;99.90
30250;DHT22;17064;47.974;13.826;2023-08-01T22:36:38;16.00;99.90
30250;DHT22;17064;47.974;13.826;2023-08-01T22:41:38;15.90;99.90
30250;DHT22;17064;47.974;13.826;2023-08-01T22:46:39;15.80;99.90
30250;DHT22;17064;47.974;13.826;2023-08-01T22:51:40;15.70;99.90
30250;DHT22;17064;47.974;13.826;2023-08-01T22:56:41;15.50;99.90
30250;DHT22;17064;47.974;13.826;2023-08-01T23:01:41;15.40;99.90
30250;DHT22;17064;47.974;13.826;2023-08-01T23:06:42;15.50;99.90
30250;DHT22;17064;47.974;13.826;2023-08-01T23:11:43;15.40;99.90
30250;DHT22;17064;47.974;13.826;2023-08-01T23:16:44;15.30;99.90
30250;DHT22;17064;47.974;13.826;2023-08-01T23:21:44;15.20;99.90
30250;DHT22;17064;47.974;13.826;2023-08-01T23:26:45;15.20;99.90
30250;DHT22;17064;47.974;13.826;2023-08-01T23:31:46;15.20;99.90
30250;DHT22;17064;47.974;13.826;2023-08-01T23:36:46;15.20;99.90
30250;DHT22;17064;47.974;13.826;2023-08-01T23:41:47;15.10;99.90
30250;DHT22;17064;47.974;13.826;2023-08-01T23:46:48;15.10;99.90
30250;DHT22;17064;47.974;13.826;2023-08-01T23:51:48;15.10;99.90
30250;DHT22;17064;47.974;13.826;2023-08-01T23:56:49;15.10;99.90
